createdAt,value
2019-03-26T00:03:38.798Z,99024.77
2019-03-26T00:07:43.689Z,99025.20
2019-03-26T00:11:48.573Z,99035.58
2019-03-26T00:15:53.490Z,99034.27
2019-03-26T00:19:58.361Z,99026.50
2019-03-26T00:24:03.246Z,99035.63
2019-03-26T00:28:08.139Z,99041.73
2019-03-26T00:32:13.031Z,99044.75
2019-03-26T00:36:17.913Z,99044.76
2019-03-26T00:40:22.802Z,99047.81
2019-03-26T00:44:27.692Z,99057.32
2019-03-26T00:48:32.581Z,99061.21
2019-03-26T00:52:37.474Z,99060.77
2019-03-26T00:56:42.359Z,99058.17
2019-03-26T01:00:47.244Z,99060.31
2019-03-26T01:04:52.134Z,99059.03
2019-03-26T01:08:57.035Z,99065.94
2019-03-26T01:13:01.911Z,99067.23
2019-03-26T01:17:06.796Z,99064.17
2019-03-26T01:21:11.683Z,99073.67
2019-03-26T01:25:16.568Z,99076.69
2019-03-26T01:29:21.458Z,99068.02
2019-03-26T01:33:26.347Z,99074.92
2019-03-26T01:37:31.240Z,99077.05
2019-03-26T01:41:36.137Z,99076.61
2019-03-26T01:45:41.030Z,99080.86
2019-03-26T01:49:45.917Z,99082.56
2019-03-26T01:53:50.814Z,99081.69
2019-03-26T01:57:55.705Z,99086.89
2019-03-26T02:02:00.585Z,99090.73
2019-03-26T02:06:05.475Z,99088.55
2019-03-26T02:10:10.510Z,99094.61
2019-03-26T02:14:15.402Z,99092.42
2019-03-26T02:18:20.365Z,99099.31
2019-03-26T02:22:25.242Z,99100.99
2019-03-26T02:26:30.127Z,99104.88
2019-03-26T02:30:35.036Z,99104.02
2019-03-26T02:34:39.913Z,99102.27
2019-03-26T02:38:44.805Z,99097.95
2019-03-26T02:42:49.704Z,99100.98
2019-03-26T02:46:54.579Z,99099.63
2019-03-26T02:50:59.479Z,99095.70
2019-03-26T02:55:05.603Z,99103.01
2019-03-26T02:59:10.502Z,99111.63
2019-03-26T03:03:15.392Z,99113.38
2019-03-26T03:07:20.275Z,99115.04
2019-03-26T03:11:25.168Z,99113.73
2019-03-26T03:15:30.055Z,99117.59
2019-03-26T03:19:34.944Z,99123.19
2019-03-26T03:23:39.834Z,99120.16
2019-03-26T03:27:44.710Z,99130.88
2019-03-26T03:31:49.752Z,99131.23
2019-03-26T03:35:54.582Z,99132.86
2019-03-26T03:39:59.475Z,99128.11
2019-03-26T03:44:04.445Z,99136.37
2019-03-26T03:48:10.376Z,99136.29
2019-03-26T03:52:17.595Z,99141.80
2019-03-26T03:56:25.303Z,99140.44
2019-03-26T04:00:35.639Z,99146.94
2019-03-26T04:04:40.537Z,99146.54
2019-03-26T04:08:45.432Z,99146.12
2019-03-26T04:12:50.324Z,99156.06
2019-03-26T04:16:55.208Z,99149.17
2019-03-26T04:21:00.118Z,99161.23
2019-03-26T04:25:05.793Z,99161.31
2019-03-26T04:29:10.695Z,99166.62
2019-03-26T04:33:15.569Z,99161.31
2019-03-26T04:37:20.461Z,99170.56
2019-03-26T04:41:25.461Z,99179.23
2019-03-26T04:45:31.009Z,99175.84
2019-03-26T04:49:35.900Z,99181.05
2019-03-26T04:53:40.802Z,99176.35
2019-03-26T04:57:45.670Z,99168.61
2019-03-26T05:01:50.559Z,99181.17
2019-03-26T05:05:55.458Z,99185.52
2019-03-26T05:10:00.454Z,99182.95
2019-03-26T05:14:05.332Z,99182.97
2019-03-26T05:18:10.213Z,99181.70
2019-03-26T05:22:24.133Z,99186.05
2019-03-26T05:26:22.772Z,99185.22
2019-03-26T05:30:27.667Z,99184.36
2019-03-26T05:34:32.565Z,99180.05
2019-03-26T05:38:37.452Z,99182.67
2019-03-26T05:42:42.353Z,99189.16
2019-03-26T05:46:48.323Z,99189.16
2019-03-26T05:50:54.330Z,99180.52
2019-03-26T05:54:59.189Z,99191.34
2019-03-26T05:59:04.085Z,99189.20
2019-03-26T06:03:08.973Z,99189.25
2019-03-26T06:07:13.858Z,99188.81
2019-03-26T06:11:18.755Z,99198.33
2019-03-26T06:15:23.656Z,99208.30
2019-03-26T06:19:29.621Z,99197.06
2019-03-26T06:23:34.504Z,99193.19
2019-03-26T06:27:39.403Z,99200.97
2019-03-26T06:31:44.375Z,99190.58
2019-03-26T06:35:49.279Z,99196.20
2019-03-26T06:39:54.196Z,99208.75
2019-03-26T06:44:00.726Z,99201.83
2019-03-26T06:48:05.624Z,99201.81
2019-03-26T06:52:11.490Z,99208.30
2019-03-26T06:56:16.454Z,99210.52
2019-03-26T07:00:32.507Z,99212.16
2019-03-26T07:04:40.434Z,99217.21
2019-03-26T07:08:45.326Z,99219.81
2019-03-26T07:12:50.580Z,99227.20
2019-03-26T07:16:55.447Z,99235.94
2019-03-26T07:21:00.343Z,99235.11
2019-03-26T07:25:07.870Z,99237.72
2019-03-26T07:29:12.805Z,99238.56
2019-03-26T07:33:17.740Z,99245.49
2019-03-26T07:37:22.652Z,99252.39
2019-03-26T07:41:27.563Z,99250.16
2019-03-26T07:45:32.517Z,99257.92
2019-03-26T07:49:37.414Z,99255.34
2019-03-26T07:53:42.333Z,99257.45
2019-03-26T07:57:47.229Z,99255.20
2019-03-26T08:01:52.133Z,99270.39
2019-03-26T08:05:57.019Z,99266.98
2019-03-26T08:10:01.918Z,99263.53
2019-03-26T08:14:06.864Z,99265.72
2019-03-26T08:18:11.713Z,99279.02
2019-03-26T08:22:16.621Z,99288.67
2019-03-26T08:26:21.505Z,99290.23
2019-03-26T08:30:26.405Z,99288.69
2019-03-26T08:34:31.296Z,99293.83
2019-03-26T08:38:36.191Z,99303.78
2019-03-26T08:42:41.081Z,99307.97
2019-03-26T08:46:46.361Z,99305.10
2019-03-26T08:50:51.462Z,99313.83
2019-03-26T08:54:56.352Z,99316.88
2019-03-26T08:59:01.255Z,99317.66
2019-03-26T09:03:06.209Z,99326.35
2019-03-26T09:07:11.237Z,99328.09
2019-03-26T09:11:16.919Z,99327.73
2019-03-26T09:15:21.819Z,99331.23
2019-03-26T09:19:26.714Z,99342.50
2019-03-26T09:23:31.607Z,99355.53
2019-03-26T09:27:36.614Z,99359.41
2019-03-26T09:31:41.451Z,99355.50
2019-03-26T09:35:46.352Z,99352.07
2019-03-26T09:39:51.252Z,99354.64
2019-03-26T09:43:56.147Z,99354.16
2019-03-26T09:48:01.032Z,99352.81
2019-03-26T09:52:05.930Z,99355.36
2019-03-26T09:56:10.829Z,99355.80
2019-03-26T10:00:16.025Z,99357.04
2019-03-26T10:04:20.997Z,99357.42
2019-03-26T10:08:25.888Z,99349.09
2019-03-26T10:12:30.859Z,99349.41
2019-03-26T10:16:35.751Z,99340.75
2019-03-26T10:20:40.653Z,99340.78
2019-03-26T10:24:45.547Z,99336.84
2019-03-26T10:28:50.440Z,99328.48
2019-03-26T10:32:55.326Z,99325.30
2019-03-26T10:37:00.868Z,99321.22
2019-03-26T10:41:05.770Z,99325.73
2019-03-26T10:45:10.804Z,99320.16
2019-03-26T10:49:15.767Z,99313.59
2019-03-26T10:53:20.659Z,99307.30
2019-03-26T10:57:25.562Z,99298.98
2019-03-26T11:01:30.461Z,99294.30
2019-03-26T11:05:35.365Z,99278.19
2019-03-26T11:09:40.250Z,99268.48
2019-03-26T11:13:45.148Z,99271.69
2019-03-26T11:17:50.056Z,99272.69
2019-03-26T11:21:54.958Z,99267.39
2019-03-26T11:25:59.860Z,99266.23
2019-03-26T11:30:06.956Z,99263.20
2019-03-26T11:34:11.844Z,99264.49
2019-03-26T11:38:18.500Z,99261.50
2019-03-26T11:42:23.599Z,99252.41
2019-03-26T11:46:28.483Z,99245.14
2019-03-26T11:50:33.374Z,99245.66
2019-03-26T11:54:38.289Z,99240.30
2019-03-26T11:58:43.181Z,99244.88
2019-03-26T12:02:48.082Z,99242.48
2019-03-26T12:06:52.987Z,99233.22
2019-03-26T12:10:57.903Z,99240.05
2019-03-26T12:15:02.794Z,99246.58
2019-03-26T12:19:08.739Z,99241.27
2019-03-26T12:23:13.649Z,99234.78
2019-03-26T12:27:18.549Z,99237.34
2019-03-26T12:31:23.454Z,99244.33
2019-03-26T12:35:29.486Z,99248.08
2019-03-26T12:39:34.386Z,99251.33
2019-03-26T12:43:39.281Z,99245.55
2019-03-26T12:47:44.200Z,99242.91
2019-03-26T12:51:49.097Z,99241.75
2019-03-26T12:55:53.983Z,99239.09
2019-03-26T12:59:58.886Z,99232.50
2019-03-26T13:04:12.440Z,99240.74
2019-03-26T13:08:10.412Z,99243.44
2019-03-26T13:12:15.323Z,99240.61
2019-03-26T13:16:20.212Z,99238.77
2019-03-26T13:20:25.117Z,99237.22
2019-03-26T13:24:30.027Z,99235.20
2019-03-26T13:28:34.936Z,99225.38
2019-03-26T13:32:39.842Z,99215.84
2019-03-26T13:36:44.736Z,99206.66
2019-03-26T13:40:49.641Z,99206.93
2019-03-26T13:44:54.554Z,99202.67
2019-03-26T13:48:59.462Z,99205.38
2019-03-26T13:53:04.442Z,99201.90
2019-03-26T13:57:09.330Z,99200.28
2019-03-26T14:01:14.228Z,99195.72
2019-03-26T14:05:28.175Z,99193.64
2019-03-26T14:09:33.064Z,99199.89
2019-03-26T14:13:37.967Z,99203.11
2019-03-26T14:17:42.863Z,99193.95
2019-03-26T14:21:47.804Z,99197.25
2019-03-26T14:25:52.709Z,99193.89
2019-03-26T14:29:57.610Z,99198.75
2019-03-26T14:34:02.519Z,99198.08
2019-03-26T14:38:07.478Z,99192.54
2019-03-26T14:42:12.372Z,99204.32
2019-03-26T14:46:17.274Z,99200.70
2019-03-26T14:50:22.241Z,99203.63
2019-03-26T14:54:27.212Z,99199.84
2019-03-26T14:58:32.099Z,99196.92
2019-03-26T15:02:36.999Z,99190.81
2019-03-26T15:06:42.155Z,99198.23
2019-03-26T15:10:47.055Z,99200.86
2019-03-26T15:14:51.944Z,99196.86
2019-03-26T15:18:56.838Z,99196.23
2019-03-26T15:23:01.731Z,99196.08
2019-03-26T15:27:06.626Z,99190.56
2019-03-26T15:31:11.525Z,99176.90
2019-03-26T15:35:16.486Z,99190.05
2019-03-26T15:39:21.391Z,99183.91
2019-03-26T15:43:26.273Z,99185.35
2019-03-26T15:47:31.247Z,99191.81
2019-03-26T15:51:36.156Z,99188.20
2019-03-26T15:55:41.063Z,99197.30
2019-03-26T15:59:45.973Z,99200.07
2019-03-26T16:03:50.875Z,99199.85
2019-03-26T16:07:55.845Z,99189.85
2019-03-26T16:12:00.745Z,99196.89
2019-03-26T16:16:05.643Z,99194.67
2019-03-26T16:20:11.219Z,99189.14
2019-03-26T16:24:16.107Z,99188.42
2019-03-26T16:28:21.004Z,99185.70
2019-03-26T16:32:25.904Z,99179.52
2019-03-26T16:36:30.797Z,99195.75
2019-03-26T16:40:35.698Z,99194.54
2019-03-26T16:44:40.575Z,99200.33
2019-03-26T16:48:45.478Z,99191.67
2019-03-26T16:52:50.440Z,99197.28
2019-03-26T16:56:55.335Z,99196.28
2019-03-26T17:01:00.231Z,99188.56
2019-03-26T17:05:06.790Z,99188.50
2019-03-26T17:09:11.676Z,99186.30
2019-03-26T17:13:16.569Z,99191.11
2019-03-26T17:17:21.475Z,99194.73
2019-03-26T17:21:26.447Z,99204.86
2019-03-26T17:25:31.352Z,99212.45
2019-03-26T17:29:36.255Z,99215.66
2019-03-26T17:33:41.188Z,99219.56
2019-03-26T17:37:58.987Z,99227.45
2019-03-26T17:41:52.647Z,99230.55
2019-03-26T17:45:57.618Z,99234.09
2019-03-26T17:50:02.587Z,99226.70
2019-03-26T17:54:07.469Z,99234.56
2019-03-26T17:58:12.375Z,99236.80
2019-03-26T18:02:17.408Z,99234.25
2019-03-26T18:06:22.308Z,99241.21
2019-03-26T18:10:27.212Z,99248.21
2019-03-26T18:14:32.100Z,99249.09
2019-03-26T18:18:36.997Z,99253.91
2019-03-26T18:22:41.893Z,99256.09
2019-03-26T18:26:46.792Z,99252.17
2019-03-26T18:30:51.751Z,99246.03
2019-03-26T18:34:56.633Z,99257.25
2019-03-26T18:39:01.536Z,99259.38
2019-03-26T18:43:07.265Z,99261.13
2019-03-26T18:47:12.278Z,99257.20
2019-03-26T18:51:17.175Z,99264.25
2019-03-26T18:55:25.109Z,99269.95
2019-03-26T18:59:28.671Z,99269.91
2019-03-26T19:03:34.639Z,99271.66
2019-03-26T19:07:39.554Z,99283.05
2019-03-26T19:11:44.462Z,99283.08
2019-03-26T19:15:49.354Z,99274.34
2019-03-26T19:19:54.254Z,99273.05
2019-03-26T19:24:04.527Z,99272.65
2019-03-26T19:28:05.743Z,99281.78
2019-03-26T19:32:10.712Z,99278.34
2019-03-26T19:36:15.604Z,99275.81
2019-03-26T19:40:20.487Z,99288.42
2019-03-26T19:44:25.390Z,99283.17
2019-03-26T19:48:30.289Z,99288.42
2019-03-26T19:52:35.196Z,99285.85
2019-03-26T19:56:40.090Z,99289.41
2019-03-26T20:00:44.979Z,99294.36
2019-03-26T20:04:49.874Z,99306.14
2019-03-26T20:08:54.772Z,99302.70
2019-03-26T20:12:59.685Z,99308.78
2019-03-26T20:17:04.639Z,99312.75
2019-03-26T20:21:09.540Z,99317.52
2019-03-26T20:25:15.739Z,99318.36
2019-03-26T20:29:20.645Z,99323.98
2019-03-26T20:33:25.546Z,99331.34
2019-03-26T20:37:30.460Z,99341.73
2019-03-26T20:41:35.414Z,99341.70
2019-03-26T20:45:40.301Z,99339.91
2019-03-26T20:49:45.199Z,99343.70
2019-03-26T20:53:50.087Z,99346.30
2019-03-26T20:57:54.983Z,99346.99
2019-03-26T21:01:59.879Z,99342.17
2019-03-26T21:06:04.772Z,99341.68
2019-03-26T21:10:10.023Z,99346.56
2019-03-26T21:14:14.923Z,99339.64
2019-03-26T21:18:19.829Z,99338.87
2019-03-26T21:22:25.792Z,99337.22
2019-03-26T21:26:30.705Z,99347.67
2019-03-26T21:30:35.660Z,99343.41
2019-03-26T21:34:40.601Z,99337.87
2019-03-26T21:38:45.476Z,99341.45
2019-03-26T21:42:50.380Z,99340.66
2019-03-26T21:46:55.287Z,99336.84
2019-03-26T21:51:00.181Z,99331.69
2019-03-26T21:55:08.026Z,99333.48
2019-03-26T21:59:12.944Z,99351.29
2019-03-26T22:03:17.853Z,99350.02
2019-03-26T22:07:22.759Z,99350.48
2019-03-26T22:11:27.653Z,99353.95
2019-03-26T22:15:32.562Z,99361.34
2019-03-26T22:19:37.466Z,99364.38
2019-03-26T22:23:42.377Z,99362.20
2019-03-26T22:27:47.280Z,99362.23
2019-03-26T22:31:52.185Z,99358.76
2019-03-26T22:35:57.090Z,99355.28
2019-03-26T22:40:01.993Z,99347.45
2019-03-26T22:44:06.893Z,99353.14
2019-03-26T22:48:11.799Z,99351.41
2019-03-26T22:52:16.698Z,99356.21
2019-03-26T22:56:21.592Z,99360.58
2019-03-26T23:00:27.107Z,99366.66
2019-03-26T23:04:33.602Z,99366.64
2019-03-26T23:08:38.518Z,99365.75
2019-03-26T23:12:43.494Z,99380.92
2019-03-26T23:16:48.382Z,99379.65
2019-03-26T23:20:53.308Z,99378.80
2019-03-26T23:24:58.195Z,99382.70
2019-03-26T23:29:03.101Z,99379.69
2019-03-26T23:33:08.005Z,99381.42
2019-03-26T23:37:13.885Z,99380.55
2019-03-26T23:41:18.791Z,99372.77
2019-03-26T23:45:23.767Z,99373.22
2019-03-26T23:49:28.667Z,99371.95
2019-03-26T23:53:33.576Z,99369.37
2019-03-26T23:57:38.497Z,99355.52
